Time;durP1;ratioP1;P1;durP2;ratioP2;P2;SDS_P1;SDS_P2;PMS_P1;PMS_P2;Temp;Humidity;BMP_temperature;BMP_pressure;BME280_temperature;BME280_humidity;BME280_pressure;Samples;Min_cycle;Max_cycle;Signal;HPM_P1;HPM_P2
2023/08/01 00:01:04;;;;;;;7.15;2.20;;;17.80;99.90;;;;;;5113390;28;20052;-73
2023/08/01 00:03:31;;;;;;;11.07;3.15;;;17.80;99.90;;;;;;5112431;28;20051;-73
2023/08/01 00:05:58;;;;;;;6.72;2.20;;;17.80;99.90;;;;;;5113225;28;20047;-73
2023/08/01 00:08:24;;;;;;;6.05;2.00;;;17.80;99.90;;;;;;5113142;28;20469;-73
2023/08/01 00:10:49;;;;;;;9.35;3.22;;;17.80;99.90;;;;;;5113276;28;20043;-73
2023/08/01 00:13:15;;;;;;;7.13;2.40;;;17.80;99.90;;;;;;5113641;28;20054;-73
2023/08/01 00:15:40;;;;;;;7.75;2.85;;;17.80;99.90;;;;;;5112619;28;20039;-73
2023/08/01 00:18:06;;;;;;;16.05;3.42;;;17.80;99.90;;;;;;5112940;28;20039;-73
2023/08/01 00:20:32;;;;;;;7.05;2.53;;;17.80;99.90;;;;;;5112987;28;20066;-73
2023/08/01 00:22:57;;;;;;;5.35;2.03;;;17.80;99.90;;;;;;5113685;28;20048;-73
2023/08/01 00:25:23;;;;;;;10.02;2.75;;;17.70;99.90;;;;;;5113118;28;20473;-73
2023/08/01 00:27:48;;;;;;;7.63;2.58;;;17.70;99.90;;;;;;5113289;28;20047;-73
2023/08/01 00:30:14;;;;;;;7.18;2.10;;;17.70;99.90;;;;;;5111700;28;20040;-73
2023/08/01 00:32:40;;;;;;;8.43;2.80;;;17.70;99.90;;;;;;5112782;28;20126;-74
2023/08/01 00:35:05;;;;;;;12.95;3.55;;;17.70;99.90;;;;;;5113019;28;20112;-73
2023/08/01 00:37:31;;;;;;;9.70;3.10;;;17.70;99.90;;;;;;5113405;28;20039;-73
2023/08/01 00:39:57;;;;;;;9.30;3.20;;;17.70;99.90;;;;;;5113446;28;20042;-73
2023/08/01 00:42:22;;;;;;;6.78;2.13;;;17.70;99.90;;;;;;5113475;28;20540;-73
2023/08/01 00:44:48;;;;;;;8.55;2.70;;;17.60;99.90;;;;;;5112880;28;20031;-73
2023/08/01 00:47:15;;;;;;;10.57;2.75;;;17.60;99.90;;;;;;5112314;28;20413;-74
2023/08/01 00:49:40;;;;;;;5.07;2.15;;;17.60;99.90;;;;;;5112828;28;20039;-74
2023/08/01 00:52:08;;;;;;;8.15;2.80;;;17.60;99.90;;;;;;5113105;28;20039;-74
2023/08/01 00:54:36;;;;;;;8.02;2.67;;;17.60;99.90;;;;;;5113450;28;20172;-73
2023/08/01 00:57:03;;;;;;;7.65;2.78;;;17.60;99.90;;;;;;5113304;28;20050;-73
2023/08/01 00:59:29;;;;;;;8.23;3.13;;;17.50;99.90;;;;;;5113216;28;20519;-74
2023/08/01 01:01:55;;;;;;;7.60;2.60;;;17.50;99.90;;;;;;5112286;28;20119;-74
2023/08/01 01:04:21;;;;;;;8.55;3.35;;;17.50;99.90;;;;;;5111711;28;20488;-74
2023/08/01 01:06:59;;;;;;;9.75;3.30;;;17.50;99.90;;;;;;5112891;28;20050;-73
2023/08/01 01:09:29;;;;;;;8.02;2.40;;;17.40;99.90;;;;;;5112834;28;20040;-74
2023/08/01 01:11:54;;;;;;;6.45;2.55;;;17.40;99.90;;;;;;5112851;28;20118;-74
2023/08/01 01:14:20;;;;;;;7.53;2.80;;;17.40;99.90;;;;;;5112963;28;20504;-74
2023/08/01 01:16:46;;;;;;;7.38;2.60;;;17.40;99.90;;;;;;5112587;28;20058;-74
2023/08/01 01:19:11;;;;;;;10.13;3.10;;;17.30;99.90;;;;;;5113240;28;20093;-74
2023/08/01 01:21:42;;;;;;;6.50;2.33;;;17.30;99.90;;;;;;5113161;28;20047;-74
2023/08/01 01:24:10;;;;;;;6.72;2.65;;;17.30;99.90;;;;;;5113198;28;20058;-74
2023/08/01 01:26:36;;;;;;;6.22;2.13;;;17.20;99.90;;;;;;5113027;28;20040;-74
2023/08/01 01:29:04;;;;;;;7.20;2.65;;;17.30;99.90;;;;;;5112646;28;20077;-74
2023/08/01 01:31:31;;;;;;;6.00;2.50;;;17.30;99.90;;;;;;5116239;28;20098;-74
2023/08/01 01:33:57;;;;;;;6.30;2.20;;;17.30;99.90;;;;;;5116635;28;20048;-74
2023/08/01 01:36:23;;;;;;;6.70;2.72;;;17.20;99.90;;;;;;5116188;28;20075;-74
2023/08/01 01:38:48;;;;;;;5.13;2.45;;;17.20;99.90;;;;;;5116841;28;20083;-74
2023/08/01 01:41:14;;;;;;;6.72;2.50;;;17.20;99.90;;;;;;5116164;28;20071;-73
2023/08/01 01:43:40;;;;;;;10.77;3.20;;;17.20;99.90;;;;;;5116301;28;20042;-74
2023/08/01 01:46:06;;;;;;;13.10;3.60;;;17.20;99.90;;;;;;5114623;28;20039;-74
2023/08/01 01:48:32;;;;;;;9.25;3.38;;;17.20;99.90;;;;;;5116519;28;20051;-74
2023/08/01 01:50:57;;;;;;;6.22;2.20;;;17.20;99.90;;;;;;5116035;28;20043;-74
2023/08/01 01:53:23;;;;;;;10.60;2.85;;;17.20;99.90;;;;;;5116585;28;20055;-74
2023/08/01 01:55:48;;;;;;;6.47;2.55;;;17.10;99.90;;;;;;5115733;28;20051;-73
2023/08/01 01:58:14;;;;;;;9.52;2.80;;;17.20;99.90;;;;;;5114624;28;20043;-74
2023/08/01 02:00:40;;;;;;;6.18;2.25;;;17.20;99.90;;;;;;5115739;28;20062;-74
2023/08/01 02:03:07;;;;;;;7.30;2.67;;;17.20;99.90;;;;;;5115863;28;20046;-74
2023/08/01 02:05:32;;;;;;;7.65;2.53;;;17.20;99.90;;;;;;5116141;28;20048;-73
2023/08/01 02:07:58;;;;;;;5.60;2.47;;;17.20;99.90;;;;;;5115383;28;20039;-74
2023/08/01 02:10:24;;;;;;;6.60;2.40;;;17.20;99.90;;;;;;5116194;28;20062;-73
2023/08/01 02:12:49;;;;;;;6.28;2.47;;;17.20;99.90;;;;;;5115289;28;20135;-73
2023/08/01 02:15:15;;;;;;;8.57;2.38;;;17.10;99.90;;;;;;5115947;28;20513;-74
2023/08/01 02:17:41;;;;;;;6.82;2.60;;;17.10;99.90;;;;;;5115537;28;20096;-74
2023/08/01 02:20:07;;;;;;;7.68;2.40;;;17.10;99.90;;;;;;5115739;28;20035;-74
2023/08/01 02:22:33;;;;;;;6.55;2.50;;;17.10;99.90;;;;;;5114856;28;20398;-73
2023/08/01 02:24:58;;;;;;;5.32;2.28;;;17.10;99.90;;;;;;5114669;28;20039;-74
2023/08/01 02:27:24;;;;;;;9.13;3.05;;;17.10;99.90;;;;;;5114058;28;20047;-74
2023/08/01 02:29:52;;;;;;;6.82;2.50;;;17.10;99.90;;;;;;5115488;28;20039;-74
2023/08/01 02:32:18;;;;;;;8.48;3.10;;;17.10;99.90;;;;;;5113995;28;20059;-73
2023/08/01 02:34:43;;;;;;;6.03;2.55;;;17.10;99.90;;;;;;5113864;28;20043;-73
2023/08/01 02:37:09;;;;;;;6.38;2.58;;;17.10;99.90;;;;;;5113229;28;20183;-73
2023/08/01 02:39:35;;;;;;;9.82;3.22;;;17.10;99.90;;;;;;5115425;28;20085;-74
2023/08/01 02:42:01;;;;;;;8.60;2.58;;;17.00;99.90;;;;;;5113412;28;20055;-74
2023/08/01 02:44:27;;;;;;;6.57;2.47;;;17.00;99.90;;;;;;5114410;28;20142;-74
2023/08/01 02:46:53;;;;;;;7.22;2.50;;;17.00;99.90;;;;;;5114698;27;20039;-74
2023/08/01 02:49:18;;;;;;;5.63;2.58;;;17.00;99.90;;;;;;5113585;28;20047;-74
2023/08/01 02:51:44;;;;;;;6.07;2.60;;;17.00;99.90;;;;;;5114715;28;20057;-74
2023/08/01 02:54:09;;;;;;;5.63;2.50;;;17.00;99.90;;;;;;5115288;28;20127;-74
2023/08/01 02:56:40;;;;;;;7.53;3.20;;;17.00;99.90;;;;;;5114792;28;20047;-74
2023/08/01 02:59:08;;;;;;;8.20;3.03;;;16.90;99.90;;;;;;5114453;28;20050;-76
2023/08/01 03:01:35;;;;;;;7.53;3.13;;;16.90;99.90;;;;;;5114028;28;20097;-75
2023/08/01 03:04:05;;;;;;;8.13;3.30;;;16.90;99.90;;;;;;5114153;28;20040;-74
2023/08/01 03:06:31;;;;;;;12.05;3.33;;;16.90;99.90;;;;;;5113098;28;20397;-74
2023/08/01 03:08:57;;;;;;;8.68;3.15;;;17.00;99.90;;;;;;5108536;28;20090;-74
2023/08/01 03:11:23;;;;;;;9.07;4.00;;;16.90;99.90;;;;;;5113306;28;20101;-74
2023/08/01 03:13:48;;;;;;;12.57;4.07;;;16.90;99.90;;;;;;5114358;28;20047;-74
2023/08/01 03:16:14;;;;;;;10.82;3.60;;;16.90;99.90;;;;;;5114593;28;20047;-75
2023/08/01 03:18:39;;;;;;;9.48;3.25;;;16.90;99.90;;;;;;5114753;28;20043;-74
2023/08/01 03:21:05;;;;;;;8.63;3.45;;;16.90;99.90;;;;;;5114674;28;20042;-74
2023/08/01 03:23:31;;;;;;;8.63;3.47;;;16.90;99.90;;;;;;5114597;28;20055;-74
2023/08/01 03:25:57;;;;;;;8.73;3.25;;;16.90;99.90;;;;;;5114439;28;20072;-74
2023/08/01 03:28:23;;;;;;;7.35;3.00;;;16.80;99.90;;;;;;5114797;28;20078;-75
2023/08/01 03:30:50;;;;;;;7.32;2.67;;;16.80;99.90;;;;;;5114856;28;20409;-74
2023/08/01 03:33:16;;;;;;;7.55;2.65;;;16.80;99.90;;;;;;5114384;28;20039;-74
2023/08/01 03:35:42;;;;;;;9.40;2.95;;;16.80;99.90;;;;;;5114199;28;20059;-74
2023/08/01 03:38:07;;;;;;;7.72;2.38;;;16.80;99.90;;;;;;5113785;28;20073;-73
2023/08/01 03:40:33;;;;;;;7.70;2.90;;;16.70;99.90;;;;;;5114240;28;20035;-74
2023/08/01 03:42:59;;;;;;;8.15;2.33;;;16.70;99.90;;;;;;5114624;28;20151;-74
2023/08/01 03:45:24;;;;;;;6.40;2.45;;;16.70;99.90;;;;;;5113706;28;20042;-74
2023/08/01 03:47:50;;;;;;;6.93;2.25;;;16.70;99.90;;;;;;5113793;27;20040;-74
2023/08/01 03:50:16;;;;;;;5.80;2.28;;;16.60;99.90;;;;;;5113674;28;20143;-74
2023/08/01 03:52:41;;;;;;;7.68;2.20;;;16.60;99.90;;;;;;5112579;28;20050;-74
2023/08/01 03:55:07;;;;;;;6.30;2.30;;;16.60;99.90;;;;;;5113804;28;20400;-74
2023/08/01 03:57:33;;;;;;;6.60;2.28;;;16.60;99.90;;;;;;5114229;28;20094;-74
2023/08/01 04:00:00;;;;;;;5.93;2.47;;;16.60;99.90;;;;;;5113412;28;20131;-74
2023/08/01 04:02:25;;;;;;;5.93;2.25;;;16.60;99.90;;;;;;5113293;27;20135;-74
2023/08/01 04:04:51;;;;;;;7.00;2.17;;;16.60;99.90;;;;;;5109440;28;20139;-74
2023/08/01 04:07:17;;;;;;;6.80;2.40;;;16.60;99.90;;;;;;5113005;28;20051;-74
2023/08/01 04:09:42;;;;;;;6.55;2.42;;;16.50;99.90;;;;;;5112104;28;20047;-74
2023/08/01 04:12:08;;;;;;;5.43;2.22;;;16.50;99.90;;;;;;5110867;28;20044;-74
2023/08/01 04:14:34;;;;;;;6.40;2.03;;;16.50;99.90;;;;;;5112941;28;20039;-74
2023/08/01 04:17:00;;;;;;;6.57;2.05;;;16.50;99.90;;;;;;5111796;28;20043;-74
2023/08/01 04:19:25;;;;;;;5.50;1.85;;;16.50;99.90;;;;;;5113283;28;20043;-74
2023/08/01 04:21:51;;;;;;;4.75;1.98;;;16.50;99.90;;;;;;5113027;28;20047;-74
2023/08/01 04:24:17;;;;;;;7.15;1.73;;;16.50;99.90;;;;;;5113362;28;20036;-74
2023/08/01 04:26:42;;;;;;;5.45;2.10;;;16.50;99.90;;;;;;5113810;28;20477;-74
2023/08/01 04:29:08;;;;;;;5.28;1.90;;;16.50;99.90;;;;;;5112922;28;20497;-74
2023/08/01 04:31:34;;;;;;;5.57;1.70;;;16.50;99.90;;;;;;5113410;28;20503;-73
2023/08/01 04:33:59;;;;;;;4.72;1.75;;;16.50;99.90;;;;;;5112664;28;20051;-73
2023/08/01 04:36:25;;;;;;;5.78;1.70;;;16.40;99.90;;;;;;5113296;28;20047;-74
2023/08/01 04:38:50;;;;;;;6.57;1.65;;;16.50;99.90;;;;;;5112914;28;20489;-74
2023/08/01 04:41:16;;;;;;;5.68;1.73;;;16.40;99.90;;;;;;5113390;28;20156;-73
2023/08/01 04:43:42;;;;;;;6.18;1.50;;;16.40;99.90;;;;;;5113131;28;20054;-74
2023/08/01 04:46:07;;;;;;;4.82;1.75;;;16.40;99.90;;;;;;5112989;28;20540;-73
2023/08/01 04:48:33;;;;;;;3.85;1.30;;;16.40;99.90;;;;;;5113030;28;20089;-73
2023/08/01 04:50:58;;;;;;;4.75;1.50;;;16.40;99.90;;;;;;5112723;28;20093;-73
2023/08/01 04:53:24;;;;;;;4.55;1.55;;;16.40;99.90;;;;;;5113266;28;20043;-74
2023/08/01 04:55:50;;;;;;;4.20;1.50;;;16.30;99.90;;;;;;5113009;28;20066;-73
2023/08/01 04:58:16;;;;;;;4.95;1.50;;;16.30;99.90;;;;;;5113467;28;20051;-73
2023/08/01 05:00:42;;;;;;;3.67;1.42;;;16.30;99.90;;;;;;5112364;28;20036;-73
2023/08/01 05:03:08;;;;;;;3.90;1.23;;;16.30;99.90;;;;;;5113566;28;20512;-74
2023/08/01 05:05:33;;;;;;;4.72;1.50;;;16.30;99.90;;;;;;5115671;28;20043;-74
2023/08/01 05:07:59;;;;;;;5.30;1.40;;;16.40;99.90;;;;;;5117114;28;20054;-74
2023/08/01 05:10:25;;;;;;;2.80;1.20;;;16.30;99.90;;;;;;5116717;28;20619;-74
2023/08/01 05:12:50;;;;;;;4.45;1.33;;;16.30;99.90;;;;;;5113614;28;20032;-73
2023/08/01 05:15:16;;;;;;;4.72;1.23;;;16.30;99.90;;;;;;5116488;28;20040;-73
2023/08/01 05:17:41;;;;;;;5.43;1.60;;;16.30;99.90;;;;;;5117001;28;20050;-73
2023/08/01 05:20:07;;;;;;;5.00;1.40;;;16.30;99.90;;;;;;5116576;28;20400;-73
2023/08/01 05:22:34;;;;;;;4.72;1.30;;;16.30;99.90;;;;;;5116654;28;20046;-73
2023/08/01 05:25:01;;;;;;;3.72;1.33;;;16.30;99.90;;;;;;5115933;28;20093;-73
2023/08/01 05:27:27;;;;;;;4.13;1.20;;;16.30;99.90;;;;;;5116297;28;20051;-74
2023/08/01 05:29:53;;;;;;;5.05;1.20;;;16.30;99.90;;;;;;5116512;28;20039;-75
2023/08/01 05:32:18;;;;;;;4.25;1.30;;;16.30;99.90;;;;;;5115847;28;20055;-74
2023/08/01 05:34:44;;;;;;;4.00;1.20;;;16.30;99.90;;;;;;5115948;28;20119;-73
2023/08/01 05:37:09;;;;;;;5.88;1.48;;;16.40;99.90;;;;;;5107455;28;20047;-73
2023/08/01 05:39:35;;;;;;;4.88;1.48;;;16.40;99.90;;;;;;5108977;28;20048;-73
2023/08/01 05:42:01;;;;;;;4.70;1.60;;;16.40;99.90;;;;;;5116587;28;20058;-73
2023/08/01 05:44:26;;;;;;;4.65;1.67;;;16.40;99.90;;;;;;5115553;28;20043;-73
2023/08/01 05:46:52;;;;;;;5.80;1.60;;;16.40;99.90;;;;;;5116704;28;20401;-73
2023/08/01 05:49:17;;;;;;;4.30;1.45;;;16.40;99.90;;;;;;5116532;28;20485;-73
2023/08/01 05:51:43;;;;;;;4.78;1.45;;;16.40;99.90;;;;;;5115325;28;20039;-73
2023/08/01 05:54:09;;;;;;;4.60;1.63;;;16.40;99.90;;;;;;5116438;28;20043;-73
2023/08/01 05:56:34;;;;;;;5.07;1.40;;;16.40;99.90;;;;;;5116568;28;20573;-73
2023/08/01 05:59:00;;;;;;;4.35;1.50;;;16.40;99.90;;;;;;5115351;28;20055;-73
2023/08/01 06:01:26;;;;;;;5.00;1.40;;;16.40;99.90;;;;;;5114560;28;20089;-73
2023/08/01 06:03:52;;;;;;;5.05;1.50;;;16.40;99.90;;;;;;5115416;28;20039;-74
2023/08/01 06:06:17;;;;;;;3.50;1.50;;;16.50;99.90;;;;;;5115889;28;20134;-74
2023/08/01 06:08:43;;;;;;;5.03;1.83;;;16.50;99.90;;;;;;5115906;28;20167;-74
2023/08/01 06:11:08;;;;;;;4.03;1.20;;;16.50;99.90;;;;;;5116015;28;20035;-73
2023/08/01 06:13:34;;;;;;;5.65;1.42;;;16.50;99.90;;;;;;5115636;28;20046;-73
2023/08/01 06:16:00;;;;;;;8.38;1.75;;;16.50;99.90;;;;;;5114856;28;20093;-73
2023/08/01 06:18:25;;;;;;;4.72;1.42;;;16.50;99.90;;;;;;5115420;28;20044;-73
2023/08/01 06:20:51;;;;;;;6.05;1.60;;;16.50;99.90;;;;;;5114585;28;20122;-73
2023/08/01 06:23:16;;;;;;;5.53;1.80;;;16.50;99.90;;;;;;5115153;28;20042;-74
2023/08/01 06:25:42;;;;;;;6.28;1.95;;;16.50;99.90;;;;;;5115390;28;20126;-73
2023/08/01 06:28:08;;;;;;;5.32;1.48;;;16.50;99.90;;;;;;5115447;28;20035;-73
2023/08/01 06:30:33;;;;;;;5.60;1.60;;;16.50;99.90;;;;;;5114273;28;20044;-73
2023/08/01 06:32:59;;;;;;;6.68;1.80;;;16.50;99.90;;;;;;5115532;28;20447;-73
2023/08/01 06:35:26;;;;;;;6.90;1.85;;;16.50;99.90;;;;;;5115532;28;20051;-74
2023/08/01 06:37:51;;;;;;;6.72;1.92;;;16.60;99.90;;;;;;5115409;28;20043;-74
2023/08/01 06:40:17;;;;;;;5.00;1.50;;;16.60;99.90;;;;;;5115740;28;20131;-73
2023/08/01 06:42:42;;;;;;;5.70;1.83;;;16.60;99.90;;;;;;5115237;28;20071;-73
2023/08/01 06:45:08;;;;;;;4.18;1.40;;;16.60;99.90;;;;;;5115369;28;20490;-73
2023/08/01 06:47:34;;;;;;;5.93;1.70;;;16.60;99.90;;;;;;5115474;28;20036;-73
2023/08/01 06:49:59;;;;;;;5.35;1.65;;;16.60;99.90;;;;;;5113922;28;20104;-73
2023/08/01 06:52:25;;;;;;;6.30;1.70;;;16.60;99.90;;;;;;5113398;28;20055;-73
2023/08/01 06:54:51;;;;;;;5.68;1.73;;;16.60;99.90;;;;;;5115512;28;20044;-73
2023/08/01 06:57:16;;;;;;;6.75;1.73;;;16.60;99.90;;;;;;5115392;28;20039;-73
2023/08/01 06:59:42;;;;;;;5.18;1.50;;;16.70;99.90;;;;;;5115005;27;20048;-74
2023/08/01 07:02:08;;;;;;;5.50;1.70;;;16.70;99.90;;;;;;5115038;28;20047;-73
2023/08/01 07:04:34;;;;;;;7.15;1.60;;;16.70;99.90;;;;;;5114956;28;20051;-73
2023/08/01 07:07:00;;;;;;;4.53;1.38;;;16.70;99.90;;;;;;5114200;28;20036;-73
2023/08/01 07:09:25;;;;;;;6.68;1.73;;;16.80;99.90;;;;;;5106383;28;20054;-73
2023/08/01 07:11:51;;;;;;;5.57;1.95;;;16.80;99.90;;;;;;5113087;28;20400;-73
2023/08/01 07:14:17;;;;;;;5.72;1.50;;;16.80;99.90;;;;;;5114310;28;20481;-74
2023/08/01 07:16:42;;;;;;;6.10;1.73;;;16.80;99.90;;;;;;5113717;28;20049;-73
2023/08/01 07:19:08;;;;;;;4.80;1.17;;;16.80;99.90;;;;;;5114543;28;20043;-74
2023/08/01 07:21:33;;;;;;;6.50;1.40;;;16.90;99.90;;;;;;5107711;28;20559;-73
2023/08/01 07:23:59;;;;;;;3.28;1.17;;;16.90;99.90;;;;;;5112016;28;20171;-73
2023/08/01 07:26:25;;;;;;;5.75;1.40;;;16.90;99.90;;;;;;5113412;28;20039;-73
2023/08/01 07:28:51;;;;;;;5.95;1.33;;;16.90;99.90;;;;;;5112192;28;20047;-73
2023/08/01 07:31:17;;;;;;;4.07;1.05;;;16.90;99.90;;;;;;5112709;28;20390;-73
2023/08/01 07:33:42;;;;;;;5.75;1.50;;;16.90;99.90;;;;;;5113270;28;20078;-73
2023/08/01 07:36:08;;;;;;;4.03;1.20;;;17.00;99.90;;;;;;5113938;28;20052;-73
2023/08/01 07:38:33;;;;;;;6.80;1.40;;;17.00;99.90;;;;;;5113229;28;20051;-73
2023/08/01 07:41:04;;;;;;;4.05;1.23;;;17.00;99.90;;;;;;5114001;28;20405;-74
2023/08/01 07:43:30;;;;;;;4.07;1.10;;;16.90;99.90;;;;;;5112010;28;20104;-73
2023/08/01 07:45:57;;;;;;;6.40;1.30;;;17.00;99.90;;;;;;5113909;28;20119;-74
2023/08/01 07:48:22;;;;;;;5.95;1.23;;;17.00;99.90;;;;;;5110495;28;20054;-73
2023/08/01 07:50:48;;;;;;;5.85;1.33;;;17.00;99.90;;;;;;5113579;28;20482;-73
2023/08/01 07:53:14;;;;;;;3.50;1.20;;;17.00;99.90;;;;;;5113241;28;20047;-73
2023/08/01 07:55:39;;;;;;;5.50;1.40;;;17.00;99.90;;;;;;5114253;28;20043;-73
2023/08/01 07:58:05;;;;;;;5.93;1.17;;;17.00;99.90;;;;;;5114301;28;20066;-73
2023/08/01 08:00:30;;;;;;;5.53;1.33;;;17.00;99.90;;;;;;5114286;28;20393;-73
2023/08/01 08:02:56;;;;;;;5.80;1.30;;;17.00;99.90;;;;;;5108137;28;20123;-73
2023/08/01 08:05:21;;;;;;;8.90;1.65;;;17.00;99.90;;;;;;5102301;28;20113;-73
2023/08/01 08:07:47;;;;;;;7.35;1.40;;;17.00;99.90;;;;;;5098188;28;20473;-73
2023/08/01 08:10:14;;;;;;;4.80;1.10;;;17.00;99.90;;;;;;5110348;28;20040;-73
2023/08/01 08:12:42;;;;;;;8.18;1.63;;;17.00;99.90;;;;;;5098149;28;20397;-73
2023/08/01 08:15:09;;;;;;;5.93;1.40;;;17.00;99.90;;;;;;5108161;28;20039;-73
2023/08/01 08:17:35;;;;;;;6.07;1.40;;;17.00;99.90;;;;;;5113603;28;20047;-73
2023/08/01 08:20:00;;;;;;;7.40;1.50;;;17.00;99.90;;;;;;5100135;28;20036;-73
2023/08/01 08:22:27;;;;;;;6.22;1.40;;;17.00;99.90;;;;;;5101954;28;20047;-73
2023/08/01 08:24:53;;;;;;;5.72;1.33;;;17.00;99.90;;;;;;5113391;28;20062;-74
2023/08/01 08:27:19;;;;;;;4.90;1.30;;;17.00;99.90;;;;;;5103602;28;20401;-73
2023/08/01 08:29:44;;;;;;;5.00;1.02;;;16.90;99.90;;;;;;5109039;28;20048;-73
2023/08/01 08:32:10;;;;;;;5.97;1.17;;;16.90;99.90;;;;;;5111862;28;20054;-73
2023/08/01 08:34:35;;;;;;;4.50;1.17;;;16.90;99.90;;;;;;5113095;28;20424;-73
2023/08/01 08:37:01;;;;;;;6.25;1.30;;;16.90;99.90;;;;;;5093795;28;20461;-73
2023/08/01 08:39:27;;;;;;;5.20;1.20;;;16.90;99.90;;;;;;5100822;28;20497;-73
2023/08/01 08:41:53;;;;;;;5.53;1.23;;;16.90;99.90;;;;;;5110200;28;20043;-73
2023/08/01 08:44:24;;;;;;;5.55;1.40;;;16.90;99.90;;;;;;5103910;28;20044;-73
2023/08/01 08:46:51;;;;;;;5.32;1.35;;;16.80;99.90;;;;;;5109023;28;20055;-73
2023/08/01 08:49:19;;;;;;;5.80;1.60;;;16.80;99.90;;;;;;5104546;28;20465;-73
2023/08/01 08:51:46;;;;;;;4.63;1.40;;;16.80;99.90;;;;;;5112101;28;20115;-73
2023/08/01 08:54:13;;;;;;;5.05;1.30;;;16.80;99.90;;;;;;5106553;28;20105;-73
2023/08/01 08:56:40;;;;;;;8.27;1.30;;;16.80;99.90;;;;;;5105324;28;20043;-74
2023/08/01 08:59:10;;;;;;;5.70;1.70;;;16.80;99.90;;;;;;5112120;28;20048;-73
2023/08/01 09:01:36;;;;;;;4.68;1.17;;;16.80;99.90;;;;;;5112990;28;20062;-73
2023/08/01 09:04:03;;;;;;;5.18;1.38;;;16.80;99.90;;;;;;5109031;28;20047;-73
2023/08/01 09:06:50;;;;;;;7.00;1.60;;;16.80;99.90;;;;;;5102378;28;20054;-74
2023/08/01 09:09:16;;;;;;;5.43;1.17;;;16.80;99.90;;;;;;5107480;28;20052;-73
2023/08/01 09:11:47;;;;;;;4.45;1.30;;;16.80;99.90;;;;;;5097789;28;20410;-73
2023/08/01 09:14:13;;;;;;;5.47;1.35;;;16.80;99.90;;;;;;5098327;28;20052;-73
2023/08/01 09:16:40;;;;;;;5.90;1.55;;;16.80;99.90;;;;;;5112928;28;20091;-73
2023/08/01 09:19:07;;;;;;;6.80;1.45;;;16.80;99.90;;;;;;5098484;28;20044;-74
2023/08/01 09:21:34;;;;;;;5.93;1.42;;;16.80;99.90;;;;;;5113075;28;20075;-74
2023/08/01 09:24:19;;;;;;;3.33;1.40;;;16.80;99.90;;;;;;5099891;28;20124;-74
2023/08/01 09:26:46;;;;;;;5.10;1.48;;;16.80;99.90;;;;;;5110284;28;20058;-74
2023/08/01 09:29:12;;;;;;;5.10;1.63;;;16.80;99.90;;;;;;5112311;28;20055;-74
2023/08/01 09:31:42;;;;;;;5.35;1.42;;;16.80;99.90;;;;;;5112716;28;20032;-74
2023/08/01 09:34:23;;;;;;;7.10;1.50;;;16.80;99.90;;;;;;5112937;28;20065;-74
2023/08/01 09:36:50;;;;;;;5.65;1.38;;;16.80;99.90;;;;;;5111831;28;20083;-73
2023/08/01 09:39:20;;;;;;;5.35;1.23;;;16.90;99.90;;;;;;5110516;28;20043;-73
2023/08/01 09:41:57;;;;;;;8.30;1.75;;;16.90;99.90;;;;;;5098049;28;20093;-74
2023/08/01 09:44:22;;;;;;;5.60;1.90;;;16.90;99.90;;;;;;5097980;28;20048;-73
2023/08/01 09:47:06;;;;;;;5.70;1.50;;;16.90;99.90;;;;;;5096294;28;20050;-74
2023/08/01 09:49:32;;;;;;;5.88;1.52;;;16.90;99.90;;;;;;5100955;28;20050;-74
2023/08/01 09:51:58;;;;;;;4.93;1.20;;;17.00;99.90;;;;;;5105210;28;20478;-75
2023/08/01 09:54:24;;;;;;;5.38;1.52;;;17.00;99.90;;;;;;5115509;28;20044;-73
2023/08/01 09:56:52;;;;;;;5.38;1.40;;;17.10;99.90;;;;;;5114921;28;20047;-73
2023/08/01 09:59:23;;;;;;;5.90;1.42;;;17.10;99.90;;;;;;5095515;28;20074;-73
2023/08/01 10:01:50;;;;;;;6.07;1.92;;;17.10;99.90;;;;;;5100178;28;20201;-74
2023/08/01 10:04:23;;;;;;;7.85;1.50;;;17.20;99.90;;;;;;5111722;28;20055;-73
2023/08/01 10:06:56;;;;;;;6.65;1.58;;;17.30;99.90;;;;;;5115131;28;20055;-73
2023/08/01 10:09:23;;;;;;;6.63;1.20;;;17.30;99.90;;;;;;5112383;28;20065;-73
2023/08/01 10:11:51;;;;;;;7.85;1.63;;;17.30;99.90;;;;;;5109425;28;20093;-74
2023/08/01 10:14:19;;;;;;;5.10;1.10;;;17.40;99.90;;;;;;5109436;28;20401;-74
2023/08/01 10:16:45;;;;;;;6.22;1.17;;;17.40;99.90;;;;;;5105361;28;20040;-73
2023/08/01 10:19:13;;;;;;;8.27;1.23;;;17.40;99.90;;;;;;5107631;28;20050;-72
2023/08/01 10:21:43;;;;;;;6.20;1.40;;;17.50;99.90;;;;;;5108225;28;20052;-73
2023/08/01 10:24:11;;;;;;;6.38;1.30;;;17.50;99.90;;;;;;5107769;28;20035;-73
2023/08/01 10:26:36;;;;;;;5.25;1.40;;;17.60;99.90;;;;;;5112628;28;20040;-73
2023/08/01 10:29:02;;;;;;;4.40;1.30;;;17.70;99.90;;;;;;5113176;28;20828;-74
2023/08/01 10:31:28;;;;;;;6.32;1.10;;;17.70;99.90;;;;;;5101557;28;20043;-73
2023/08/01 10:34:04;;;;;;;3.33;0.90;;;17.80;99.90;;;;;;5109549;28;20167;-73
2023/08/01 10:36:32;;;;;;;4.85;1.08;;;17.70;99.90;;;;;;5113995;28;20055;-73
2023/08/01 10:38:59;;;;;;;4.65;1.00;;;17.70;99.90;;;;;;5109502;27;20083;-73
2023/08/01 10:41:31;;;;;;;3.90;1.08;;;17.80;99.90;;;;;;5114473;28;20485;-73
2023/08/01 10:44:10;;;;;;;5.85;1.20;;;17.70;99.90;;;;;;5114518;28;20050;-73
2023/08/01 10:47:11;;;;;;;8.85;1.42;;;17.70;99.90;;;;;;5112831;28;20097;-73
2023/08/01 10:49:44;;;;;;;11.63;1.95;;;17.70;99.90;;;;;;5026009;28;20045;-73
2023/08/01 10:52:17;;;;;;;9.38;1.80;;;17.70;99.90;;;;;;5102093;28;20088;-72
2023/08/01 10:54:43;;;;;;;7.97;1.90;;;17.70;99.90;;;;;;5114594;28;20587;-73
2023/08/01 10:57:18;;;;;;;11.80;2.20;;;17.80;99.90;;;;;;5110645;28;20118;-73
2023/08/01 10:59:44;;;;;;;8.73;1.90;;;17.90;99.90;;;;;;5105804;28;20048;-73
2023/08/01 11:02:10;;;;;;;12.40;2.15;;;18.00;99.90;;;;;;5108957;28;20090;-73
2023/08/01 11:04:39;;;;;;;11.30;2.33;;;18.10;99.90;;;;;;5107975;28;20414;-73
2023/08/01 11:07:25;;;;;;;11.15;1.90;;;18.10;99.90;;;;;;5113223;28;20086;-73
2023/08/01 11:10:09;;;;;;;8.82;1.98;;;18.10;99.90;;;;;;5114024;28;20046;-73
2023/08/01 11:12:56;;;;;;;7.65;1.60;;;18.20;99.90;;;;;;5112535;28;20044;-73
2023/08/01 11:15:22;;;;;;;9.63;1.95;;;18.20;99.90;;;;;;5112063;28;20134;-74
2023/08/01 11:17:50;;;;;;;8.45;1.63;;;18.20;99.90;;;;;;5114185;28;20067;-73
2023/08/01 11:20:17;;;;;;;9.38;1.73;;;18.20;99.90;;;;;;5113810;28;20441;-73
2023/08/01 11:23:01;;;;;;;9.95;1.80;;;18.20;99.90;;;;;;5113794;27;20401;-73
2023/08/01 11:25:39;;;;;;;10.38;1.90;;;18.20;99.90;;;;;;5112542;28;20082;-73
2023/08/01 11:28:14;;;;;;;6.90;1.60;;;18.20;99.90;;;;;;5113858;28;20046;-73
2023/08/01 11:30:40;;;;;;;10.70;1.80;;;18.20;99.90;;;;;;5114739;28;20043;-73
2023/08/01 11:33:20;;;;;;;7.70;1.80;;;18.30;99.90;;;;;;5114460;28;20040;-73
2023/08/01 11:35:49;;;;;;;10.73;1.42;;;18.30;99.90;;;;;;5114555;28;20071;-73
2023/08/01 11:38:15;;;;;;;11.55;1.52;;;18.30;99.90;;;;;;5114425;28;20088;-73
2023/08/01 11:40:42;;;;;;;7.85;1.52;;;18.30;99.90;;;;;;5114516;28;20035;-73
2023/08/01 11:43:08;;;;;;;10.48;1.70;;;18.40;99.90;;;;;;5114534;28;20048;-73
2023/08/01 11:45:33;;;;;;;8.05;1.63;;;18.40;99.90;;;;;;5114330;28;20055;-73
2023/08/01 11:47:59;;;;;;;8.63;1.60;;;18.40;99.90;;;;;;5114723;28;20039;-73
2023/08/01 11:50:25;;;;;;;9.32;1.80;;;18.40;99.90;;;;;;5114476;28;20036;-73
2023/08/01 11:52:52;;;;;;;7.90;2.17;;;18.30;99.90;;;;;;5114359;28;20046;-72
2023/08/01 11:55:26;;;;;;;8.73;2.05;;;18.40;99.90;;;;;;5114340;28;20058;-73
2023/08/01 11:57:56;;;;;;;8.15;1.60;;;18.30;99.90;;;;;;5114180;28;20398;-72
2023/08/01 12:00:32;;;;;;;7.22;1.60;;;18.30;99.90;;;;;;5114144;28;20051;-73
2023/08/01 12:03:12;;;;;;;9.32;1.90;;;18.30;99.90;;;;;;5114308;28;20042;-73
2023/08/01 12:05:41;;;;;;;9.40;1.58;;;18.30;99.90;;;;;;5113998;28;20122;-74
2023/08/01 12:08:13;;;;;;;7.68;1.52;;;18.40;99.90;;;;;;5114034;28;20123;-73
2023/08/01 12:10:41;;;;;;;8.27;1.50;;;18.40;99.90;;;;;;5113992;28;20040;-73
2023/08/01 12:13:18;;;;;;;9.85;1.48;;;18.40;99.90;;;;;;5112100;28;20083;-73
2023/08/01 12:15:44;;;;;;;9.40;1.75;;;18.50;99.90;;;;;;5114051;28;20093;-73
2023/08/01 12:18:09;;;;;;;9.27;2.00;;;18.50;99.90;;;;;;5113703;28;20051;-73
2023/08/01 12:20:35;;;;;;;9.50;1.65;;;18.60;99.90;;;;;;5113796;28;20044;-73
2023/08/01 12:23:01;;;;;;;9.57;1.67;;;18.60;99.90;;;;;;5113654;28;20509;-73
2023/08/01 12:25:26;;;;;;;8.73;1.75;;;18.70;99.90;;;;;;5113548;28;20044;-72
2023/08/01 12:27:52;;;;;;;6.32;1.48;;;18.70;99.90;;;;;;5113823;28;20131;-73
2023/08/01 12:30:17;;;;;;;9.25;1.67;;;18.80;99.90;;;;;;5113707;28;20131;-72
2023/08/01 12:32:43;;;;;;;9.07;1.55;;;18.90;99.90;;;;;;5113725;28;20062;-73
2023/08/01 12:35:09;;;;;;;8.35;1.52;;;18.90;99.90;;;;;;5113382;28;20106;-73
2023/08/01 12:37:35;;;;;;;7.07;1.52;;;18.90;99.90;;;;;;5113549;28;20112;-73
2023/08/01 12:40:00;;;;;;;7.47;1.50;;;18.90;99.90;;;;;;5113492;28;20051;-73
2023/08/01 12:42:26;;;;;;;9.85;1.52;;;18.90;99.90;;;;;;5112227;28;20496;-73
2023/08/01 12:44:51;;;;;;;8.02;1.52;;;18.90;99.90;;;;;;5113583;28;20040;-73